Time;durP1;ratioP1;P1;durP2;ratioP2;P2;SDS_P1;SDS_P2;PMS_P1;PMS_P2;Temp;Humidity;BMP_temperature;BMP_pressure;BME280_temperature;BME280_humidity;BME280_pressure;Samples;Min_cycle;Max_cycle;Signal;HPM_P1;HPM_P2
2023/08/10 00:00:34;;;;;;;1.20;0.95;;;;;;;14.08;89.56;99874.72;5096291;28;20117;-68
2023/08/10 00:03:03;;;;;;;1.70;0.90;;;;;;;14.15;89.24;99872.94;5094613;28;20048;-69
2023/08/10 00:05:34;;;;;;;0.50;0.50;;;;;;;14.05;89.18;99869.63;5095948;28;20288;-68
2023/08/10 00:08:03;;;;;;;0.50;0.50;;;;;;;13.99;89.50;99879.94;5096211;28;20059;-68
2023/08/10 00:10:32;;;;;;;1.40;1.08;;;;;;;13.96;89.18;99880.81;5096134;28;20079;-68
2023/08/10 00:13:01;;;;;;;0.70;0.70;;;;;;;13.94;89.64;99881.72;5095769;28;20044;-68
2023/08/10 00:15:30;;;;;;;0.43;0.43;;;;;;;13.95;89.20;99880.84;5096025;28;20064;-69
2023/08/10 00:17:59;;;;;;;0.28;0.28;;;;;;;14.00;89.23;99881.66;5094525;28;20040;-68
2023/08/10 00:20:28;;;;;;;0.40;0.40;;;;;;;14.07;88.85;99875.56;5095604;28;20079;-68
2023/08/10 00:22:58;;;;;;;0.57;0.57;;;;;;;13.96;89.05;99880.00;5095522;28;20051;-68
2023/08/10 00:25:27;;;;;;;0.68;0.63;;;;;;;13.72;89.03;99878.56;5128489;27;20044;-68
2023/08/10 00:27:57;;;;;;;0.53;0.53;;;;;;;13.67;89.29;99882.00;5095552;28;20401;-68
2023/08/10 00:30:28;;;;;;;0.40;0.40;;;;;;;13.66;89.32;99885.44;5095492;28;20052;-68
2023/08/10 00:32:57;;;;;;;0.50;0.50;;;;;;;13.70;89.23;99882.81;5111485;28;20047;-68
2023/08/10 00:35:26;;;;;;;0.53;0.53;;;;;;;13.82;89.52;99881.88;5095922;28;20044;-68
2023/08/10 00:37:56;;;;;;;0.73;0.67;;;;;;;13.93;89.65;99887.72;5094141;28;20324;-69
2023/08/10 00:40:26;;;;;;;0.95;0.80;;;;;;;14.00;89.60;99882.50;5095251;28;20766;-68
2023/08/10 00:42:58;;;;;;;0.50;0.50;;;;;;;14.12;90.15;99891.78;5095129;28;20060;-68
2023/08/10 00:45:26;;;;;;;0.60;0.60;;;;;;;14.14;90.25;99884.91;5095201;28;20048;-68
2023/08/10 00:47:56;;;;;;;1.40;1.30;;;;;;;14.18;90.45;99886.56;5095150;28;20039;-68
2023/08/10 00:50:26;;;;;;;0.73;0.55;;;;;;;14.24;90.70;99886.50;5093944;28;20068;-67
2023/08/10 00:52:55;;;;;;;0.65;0.55;;;;;;;14.28;91.06;99883.00;5095270;28;20085;-67
2023/08/10 00:55:27;;;;;;;0.40;0.40;;;;;;;14.31;90.62;99887.28;5094939;28;20471;-67
2023/08/10 00:57:56;;;;;;;0.55;0.55;;;;;;;14.32;91.59;99889.00;5095284;28;20490;-67
2023/08/10 01:00:25;;;;;;;0.50;0.50;;;;;;;14.36;91.15;99881.25;5094835;28;20505;-69
2023/08/10 01:02:54;;;;;;;0.40;0.40;;;;;;;14.35;91.13;99883.84;5094826;28;20093;-68
2023/08/10 01:05:28;;;;;;;1.17;0.90;;;;;;;14.26;91.40;99882.19;5093507;28;20048;-68
2023/08/10 01:08:08;;;;;;;0.32;0.30;;;;;;;14.15;91.04;99894.31;5094786;28;20051;-67
2023/08/10 01:10:47;;;;;;;0.82;0.73;;;;;;;14.16;91.46;99888.28;5094769;28;20047;-67
2023/08/10 01:13:24;;;;;;;1.25;0.90;;;;;;;14.24;91.65;99886.50;5093410;28;20051;-68
2023/08/10 01:15:57;;;;;;;0.77;0.77;;;;;;;14.32;91.92;99899.28;5094845;28;20472;-69
2023/08/10 01:18:28;;;;;;;0.70;0.70;;;;;;;14.35;91.79;99892.38;5094546;28;20051;-69
2023/08/10 01:20:59;;;;;;;0.47;0.43;;;;;;;14.38;91.82;99889.78;5094476;28;20036;-67
2023/08/10 01:23:35;;;;;;;0.65;0.65;;;;;;;14.35;91.00;99888.97;5094897;28;20107;-67
2023/08/10 01:26:08;;;;;;;0.50;0.50;;;;;;;14.24;91.39;99880.50;5094707;28;20095;-69
2023/08/10 01:28:38;;;;;;;0.50;0.50;;;;;;;14.24;91.62;99891.63;5094720;28;20059;-68
2023/08/10 01:31:07;;;;;;;0.73;0.70;;;;;;;14.24;91.50;99881.38;5094609;28;20432;-67
2023/08/10 01:33:36;;;;;;;0.65;0.65;;;;;;;14.23;91.16;99879.66;5127162;27;20126;-67
2023/08/10 01:36:05;;;;;;;1.80;0.82;;;;;;;14.22;90.95;99888.25;5093015;28;20119;-67
2023/08/10 01:38:34;;;;;;;0.85;0.70;;;;;;;14.13;90.82;99888.34;5094564;28;20065;-67
2023/08/10 01:41:03;;;;;;;0.33;0.33;;;;;;;14.06;91.48;99886.69;5094132;28;20040;-67
2023/08/10 01:43:33;;;;;;;0.70;0.70;;;;;;;14.08;91.65;99882.44;5093891;28;20039;-67
2023/08/10 01:46:02;;;;;;;1.10;0.95;;;;;;;14.12;92.11;99891.78;5092828;28;20318;-67
2023/08/10 01:48:34;;;;;;;0.55;0.55;;;;;;;14.10;91.96;99898.66;5093158;28;20062;-68
2023/08/10 01:51:08;;;;;;;1.15;0.95;;;;;;;13.97;91.94;99903.06;5093235;28;20075;-68
2023/08/10 01:53:38;;;;;;;0.60;0.60;;;;;;;13.89;92.25;99898.91;5092877;28;20047;-67
2023/08/10 01:56:07;;;;;;;0.88;0.80;;;;;;;13.91;92.86;99902.28;5093856;28;20124;-67
2023/08/10 01:58:38;;;;;;;0.68;0.68;;;;;;;13.94;92.92;99909.97;5094094;28;20393;-67
2023/08/10 02:01:07;;;;;;;0.40;0.40;;;;;;;13.81;93.02;99900.69;5094067;28;20486;-67
2023/08/10 02:03:36;;;;;;;1.20;0.63;;;;;;;13.75;92.95;99893.06;5093780;28;20044;-68
2023/08/10 02:06:05;;;;;;;0.40;0.40;;;;;;;13.73;93.27;99892.19;5093706;28;20048;-69
2023/08/10 02:08:34;;;;;;;0.50;0.50;;;;;;;13.78;93.65;99882.75;5092642;28;20090;-69
2023/08/10 02:11:04;;;;;;;0.30;0.30;;;;;;;13.78;93.15;99885.31;5093736;28;20047;-67
2023/08/10 02:13:32;;;;;;;0.43;0.43;;;;;;;13.73;93.37;99881.94;5093728;28;20032;-67
2023/08/10 02:16:04;;;;;;;0.45;0.45;;;;;;;13.81;93.94;99885.28;5093589;28;20117;-68
2023/08/10 02:18:33;;;;;;;0.30;0.30;;;;;;;13.75;93.61;99890.50;5093915;28;20044;-69
2023/08/10 02:21:02;;;;;;;0.50;0.50;;;;;;;13.66;93.65;99891.41;5092381;28;20051;-67
2023/08/10 02:23:32;;;;;;;1.05;0.90;;;;;;;13.75;94.04;99883.63;5093665;28;20048;-69
2023/08/10 02:26:00;;;;;;;;;;;;;;;13.70;93.84;99876.88;5096359;28;20375;-66
2023/08/10 02:28:30;;;;;;;0.50;0.50;;;;;;;13.77;94.20;99884.44;5097756;28;19920;-69
2023/08/10 02:31:00;;;;;;;0.40;0.40;;;;;;;13.65;93.91;99894.88;5097799;28;20119;-66
2023/08/10 02:33:30;;;;;;;0.40;0.40;;;;;;;13.54;94.13;99895.81;5098081;28;20048;-67
2023/08/10 02:35:59;;;;;;;0.50;0.50;;;;;;;13.54;93.99;99895.81;5097742;28;20050;-66
2023/08/10 02:38:28;;;;;;;0.37;0.37;;;;;;;13.57;93.95;99895.78;5096674;28;20046;-67
2023/08/10 02:40:57;;;;;;;0.40;0.40;;;;;;;13.60;94.04;99895.75;5097439;28;20486;-67
2023/08/10 02:43:26;;;;;;;2.00;1.33;;;;;;;13.54;94.14;99885.53;5096317;28;20083;-67
2023/08/10 02:45:54;;;;;;;1.10;1.03;;;;;;;13.53;94.14;99889.84;5096228;28;20122;-67
2023/08/10 02:48:24;;;;;;;0.47;0.47;;;;;;;13.52;94.13;99888.13;5097622;28;20128;-69
2023/08/10 02:50:55;;;;;;;0.52;0.52;;;;;;;13.54;94.56;99888.97;5097433;28;20071;-67
2023/08/10 02:53:24;;;;;;;0.60;0.60;;;;;;;13.54;94.17;99890.69;5097325;28;20036;-68
2023/08/10 02:55:53;;;;;;;0.50;0.50;;;;;;;13.54;94.08;99895.81;5097538;28;20036;-67
2023/08/10 02:58:22;;;;;;;0.70;0.70;;;;;;;13.48;94.27;99903.56;5097536;28;20352;-68
2023/08/10 03:00:51;;;;;;;1.67;1.10;;;;;;;13.46;94.48;99910.44;5097096;28;20048;-68
2023/08/10 03:03:20;;;;;;;0.82;0.68;;;;;;;13.49;93.99;99907.81;5097431;28;20079;-66
2023/08/10 03:05:49;;;;;;;0.52;0.52;;;;;;;13.57;94.08;99913.75;5097106;28;20127;-67
2023/08/10 03:08:20;;;;;;;0.40;0.40;;;;;;;13.56;94.25;99909.47;5095802;28;20607;-67
2023/08/10 03:10:49;;;;;;;0.52;0.52;;;;;;;13.52;93.97;99918.06;5096164;28;20074;-69
2023/08/10 03:13:19;;;;;;;;;;;;;;;13.60;94.61;99926.53;5097684;28;20123;-67
2023/08/10 03:15:48;;;;;;;0.43;0.43;;;;;;;13.62;94.38;99924.81;5129938;27;20377;-66
2023/08/10 03:18:17;;;;;;;0.50;0.50;;;;;;;13.57;94.45;99926.56;5112596;28;20047;-68
2023/08/10 03:20:46;;;;;;;0.57;0.57;;;;;;;13.57;94.90;99926.56;5095875;28;20036;-68
2023/08/10 03:23:15;;;;;;;0.70;0.70;;;;;;;13.60;94.70;99931.66;5095738;28;20477;-67
2023/08/10 03:25:45;;;;;;;0.73;0.73;;;;;;;13.66;94.88;99936.72;5095925;28;20036;-67
2023/08/10 03:28:14;;;;;;;0.50;0.50;;;;;;;13.71;94.84;99937.53;5096630;28;20071;-67
2023/08/10 03:30:44;;;;;;;0.82;0.80;;;;;;;13.68;94.58;99933.28;5095404;28;20044;-68
2023/08/10 03:33:13;;;;;;;0.60;0.55;;;;;;;13.65;94.54;99935.03;5095353;28;20079;-69
2023/08/10 03:35:45;;;;;;;0.45;0.45;;;;;;;13.55;94.49;99933.41;5096574;28;20066;-68
2023/08/10 03:38:14;;;;;;;0.57;0.57;;;;;;;13.48;94.77;99932.63;5095550;28;20040;-68
2023/08/10 03:40:45;;;;;;;1.02;0.93;;;;;;;13.44;94.81;99936.06;5095224;28;20481;-68
2023/08/10 03:43:15;;;;;;;0.60;0.60;;;;;;;13.47;94.81;99940.31;5129239;27;20564;-67
2023/08/10 03:45:44;;;;;;;0.40;0.40;;;;;;;13.46;95.14;99942.03;5095449;28;20051;-66
2023/08/10 03:48:13;;;;;;;0.77;0.77;;;;;;;13.49;94.64;99948.84;5095363;28;20504;-68
2023/08/10 03:50:42;;;;;;;0.67;0.67;;;;;;;13.52;95.19;99938.56;5096226;28;20668;-68
2023/08/10 03:53:11;;;;;;;0.65;0.52;;;;;;;13.54;94.78;99947.94;5095433;28;20281;-67
2023/08/10 03:55:41;;;;;;;0.55;0.55;;;;;;;13.61;95.11;99943.63;5094963;28;20490;-66
2023/08/10 03:58:11;;;;;;;0.77;0.77;;;;;;;13.63;94.69;99949.59;5095561;28;20046;-66
2023/08/10 04:00:44;;;;;;;0.68;0.68;;;;;;;13.59;94.95;99955.59;5128917;27;20055;-67
2023/08/10 04:03:16;;;;;;;0.50;0.50;;;;;;;13.59;94.87;99960.72;5096076;28;20106;-67
2023/08/10 04:05:45;;;;;;;0.30;0.30;;;;;;;13.54;94.86;99958.22;5112066;28;20044;-67
2023/08/10 04:08:14;;;;;;;0.97;0.83;;;;;;;13.51;94.83;99958.22;5094703;28;20183;-68
2023/08/10 04:10:44;;;;;;;0.43;0.43;;;;;;;13.50;95.10;99965.94;5095822;28;20696;-68
2023/08/10 04:13:14;;;;;;;0.40;0.40;;;;;;;13.49;95.23;99964.22;5094611;28;20498;-67
2023/08/10 04:15:43;;;;;;;0.80;0.60;;;;;;;13.53;95.24;99963.38;5096111;28;20048;-67
2023/08/10 04:18:13;;;;;;;0.50;0.50;;;;;;;13.54;94.95;99967.63;5095757;28;20490;-68
2023/08/10 04:20:41;;;;;;;;;;;;;;;13.52;95.04;99961.66;5094914;28;20055;-68
2023/08/10 04:23:10;;;;;;;0.40;0.40;;;;;;;13.51;94.85;99972.78;5095616;28;19919;-67
2023/08/10 04:25:40;;;;;;;0.60;0.60;;;;;;;13.42;95.06;99982.25;5095621;28;20508;-67
2023/08/10 04:28:08;;;;;;;0.52;0.52;;;;;;;13.37;94.90;99978.84;5095530;28;20127;-68
2023/08/10 04:30:39;;;;;;;0.30;0.30;;;;;;;13.46;95.35;99975.34;5095407;28;20032;-67
2023/08/10 04:33:09;;;;;;;0.40;0.40;;;;;;;13.41;95.14;99972.00;5095746;28;20051;-68
2023/08/10 04:35:38;;;;;;;0.30;0.30;;;;;;;13.35;95.14;99975.47;5095722;28;20052;-67
2023/08/10 04:38:07;;;;;;;0.40;0.40;;;;;;;13.33;95.11;99979.75;5095629;28;20036;-67
2023/08/10 04:40:36;;;;;;;1.88;0.68;;;;;;;13.34;95.22;99975.47;5095453;28;20452;-67
2023/08/10 04:43:05;;;;;;;0.83;0.73;;;;;;;13.38;95.24;99980.56;5094667;28;20058;-68
2023/08/10 04:45:34;;;;;;;0.60;0.60;;;;;;;13.40;94.96;99976.28;5095468;28;20040;-67
2023/08/10 04:48:04;;;;;;;1.38;0.95;;;;;;;13.47;95.43;99976.22;5095033;28;20040;-67
2023/08/10 04:50:33;;;;;;;0.35;0.35;;;;;;;13.52;95.24;99983.03;5095216;28;20043;-68
2023/08/10 04:53:03;;;;;;;0.40;0.40;;;;;;;13.55;95.50;99985.56;5095045;28;20050;-68
2023/08/10 04:55:32;;;;;;;1.70;0.98;;;;;;;13.58;95.15;99984.69;5095233;28;20280;-68
2023/08/10 04:58:01;;;;;;;0.47;0.47;;;;;;;13.59;95.13;99979.53;5095181;28;20040;-68
2023/08/10 05:00:29;;;;;;;0.60;0.60;;;;;;;13.57;95.01;99978.72;5094887;28;20071;-68
2023/08/10 05:02:58;;;;;;;0.55;0.55;;;;;;;13.58;95.34;99989.81;5094667;28;20028;-69
2023/08/10 05:05:29;;;;;;;0.55;0.55;;;;;;;13.61;95.64;99990.63;5095021;28;20119;-67
2023/08/10 05:07:57;;;;;;;1.20;1.10;;;;;;;13.62;95.54;99991.50;5094748;28;20048;-68
2023/08/10 05:10:27;;;;;;;1.10;1.00;;;;;;;13.67;95.58;100000.00;5094707;28;20124;-68
2023/08/10 05:12:56;;;;;;;0.75;0.75;;;;;;;13.74;95.34;99986.25;5094583;28;20139;-69
2023/08/10 05:15:25;;;;;;;0.60;0.60;;;;;;;13.71;95.79;99991.41;5094950;28;20447;-68
2023/08/10 05:17:55;;;;;;;0.60;0.60;;;;;;;13.70;95.32;99992.28;5094970;28;20064;-69
2023/08/10 05:20:25;;;;;;;0.70;0.70;;;;;;;13.68;95.37;99994.00;5093340;28;20048;-67
2023/08/10 05:22:56;;;;;;;0.82;0.82;;;;;;;13.69;95.50;99995.72;5094295;28;20489;-69
2023/08/10 05:25:25;;;;;;;0.60;0.60;;;;;;;13.79;95.50;99989.63;5094090;28;20052;-68
2023/08/10 05:27:54;;;;;;;0.63;0.63;;;;;;;13.82;95.72;99995.56;5094686;28;20489;-69
2023/08/10 05:30:23;;;;;;;1.33;1.03;;;;;;;13.85;95.54;99999.84;5094649;28;20101;-68
2023/08/10 05:32:51;;;;;;;4.63;1.98;;;;;;;13.89;95.51;100009.22;5094308;28;20028;-69
2023/08/10 05:35:21;;;;;;;0.82;0.82;;;;;;;13.93;96.06;100014.31;5094646;28;20119;-69
2023/08/10 05:37:50;;;;;;;1.00;0.95;;;;;;;13.98;95.81;100006.56;5094548;28;20036;-69
2023/08/10 05:40:20;;;;;;;0.55;0.55;;;;;;;14.04;95.84;100011.63;5094485;28;20043;-70
2023/08/10 05:42:49;;;;;;;0.55;0.40;;;;;;;14.16;95.82;100013.25;5094252;28;20050;-69
2023/08/10 05:45:19;;;;;;;1.00;0.90;;;;;;;14.24;95.83;100009.72;5094024;28;20048;-70
2023/08/10 05:47:51;;;;;;;0.50;0.50;;;;;;;14.29;95.79;100007.97;5094147;28;20052;-70
2023/08/10 05:50:19;;;;;;;1.35;1.25;;;;;;;14.28;95.46;100011.41;5094007;28;20059;-70
2023/08/10 05:52:50;;;;;;;1.35;1.25;;;;;;;14.32;95.71;100010.53;5093992;28;20047;-69
2023/08/10 05:55:21;;;;;;;0.82;0.82;;;;;;;14.29;95.15;100013.09;5094010;28;20445;-70
2023/08/10 05:57:50;;;;;;;0.60;0.60;;;;;;;14.41;95.24;100013.00;5094483;28;20055;-70
2023/08/10 06:00:18;;;;;;;0.83;0.83;;;;;;;14.49;95.30;100018.06;5093837;28;20032;-71
2023/08/10 06:02:48;;;;;;;3.40;1.07;;;;;;;14.49;94.96;100011.19;5093700;28;20036;-71
2023/08/10 06:05:17;;;;;;;0.47;0.47;;;;;;;14.61;94.47;100018.75;5093804;28;20056;-71
2023/08/10 06:07:47;;;;;;;0.70;0.70;;;;;;;14.80;94.93;100015.97;5093667;28;20066;-70
2023/08/10 06:10:16;;;;;;;0.57;0.52;;;;;;;15.00;94.48;100019.13;5093724;28;20101;-71
2023/08/10 06:12:47;;;;;;;1.65;0.93;;;;;;;15.19;94.21;100018.00;5093646;28;20486;-69
2023/08/10 06:15:16;;;;;;;1.75;0.90;;;;;;;15.36;93.28;100013.47;5093556;28;20089;-70
2023/08/10 06:17:45;;;;;;;0.85;0.85;;;;;;;15.55;93.01;100014.94;5093586;28;20075;-69
2023/08/10 06:20:16;;;;;;;1.45;0.60;;;;;;;15.74;92.55;100018.91;5094007;28;20435;-70
2023/08/10 06:22:46;;;;;;;2.03;1.05;;;;;;;15.78;91.59;100020.59;5093442;28;20040;-70
2023/08/10 06:25:14;;;;;;;0.40;0.40;;;;;;;15.80;90.82;100021.41;5093487;28;20036;-68
2023/08/10 06:27:43;;;;;;;0.65;0.65;;;;;;;15.87;90.26;100023.00;5093635;28;20040;-69
2023/08/10 06:30:16;;;;;;;1.25;1.00;;;;;;;15.98;89.43;100021.06;5093811;28;20452;-69
2023/08/10 06:32:45;;;;;;;0.68;0.68;;;;;;;16.14;89.11;100021.69;5093830;28;20070;-70
2023/08/10 06:35:14;;;;;;;1.10;0.60;;;;;;;16.19;87.95;100019.03;5093731;28;20033;-68
2023/08/10 06:37:44;;;;;;;0.50;0.50;;;;;;;16.31;87.50;100017.06;5093427;28;20454;-68
2023/08/10 06:40:15;;;;;;;0.50;0.50;;;;;;;16.43;86.78;100008.25;5093448;28;20054;-69
2023/08/10 06:42:43;;;;;;;0.80;0.80;;;;;;;16.51;86.09;100014.09;5093367;28;20056;-69
2023/08/10 06:45:27;;;;;;;1.08;0.80;;;;;;;16.65;85.00;100017.31;5092191;28;20044;-68
2023/08/10 06:47:57;;;;;;;1.95;1.30;;;;;;;16.83;84.57;100022.09;5093330;28;20048;-70
2023/08/10 06:50:26;;;;;;;0.50;0.50;;;;;;;16.91;83.91;100022.78;5093671;28;20131;-70
2023/08/10 06:52:55;;;;;;;1.33;1.13;;;;;;;16.94;83.18;100019.28;5093197;28;20046;-69
2023/08/10 06:55:24;;;;;;;1.35;0.50;;;;;;;17.05;82.92;100020.75;5093274;28;20066;-70
2023/08/10 06:57:55;;;;;;;0.70;0.70;;;;;;;17.10;82.46;100026.66;5092357;28;20371;-69
2023/08/10 07:00:25;;;;;;;0.50;0.50;;;;;;;17.20;81.99;100030.72;5093523;28;20454;-68
2023/08/10 07:02:59;;;;;;;0.50;0.50;;;;;;;17.31;81.59;100028.78;5094320;28;20032;-67
2023/08/10 07:05:28;;;;;;;0.50;0.50;;;;;;;17.41;80.93;100038.00;5093249;28;20100;-67
2023/08/10 07:07:57;;;;;;;0.40;0.40;;;;;;;17.43;80.54;100043.97;5093174;28;20036;-66
2023/08/10 07:10:26;;;;;;;0.82;0.82;;;;;;;17.52;80.34;100032.63;5093159;28;20067;-68
2023/08/10 07:12:55;;;;;;;0.60;0.60;;;;;;;17.59;79.85;100039.31;5095472;28;20043;-69
2023/08/10 07:15:24;;;;;;;0.77;0.77;;;;;;;17.77;79.77;100038.06;5097261;28;20044;-70
2023/08/10 07:17:53;;;;;;;0.50;0.50;;;;;;;17.79;79.17;100037.13;5095847;28;20493;-68
2023/08/10 07:20:23;;;;;;;0.57;0.57;;;;;;;17.89;78.61;100045.50;5097210;28;20176;-67
2023/08/10 07:22:52;;;;;;;0.50;0.50;;;;;;;17.86;78.33;100053.31;5112445;28;20289;-69
2023/08/10 07:25:21;;;;;;;2.60;0.80;;;;;;;17.94;78.24;100041.06;5096774;28;20557;-68
2023/08/10 07:27:50;;;;;;;0.40;0.40;;;;;;;18.08;78.21;100051.91;5097068;28;20502;-68
2023/08/10 07:30:19;;;;;;;0.60;0.60;;;;;;;18.25;77.88;100047.16;5096654;28;20397;-69
2023/08/10 07:32:48;;;;;;;0.50;0.50;;;;;;;18.30;77.24;100042.72;5096617;28;20292;-69
2023/08/10 07:35:18;;;;;;;0.93;0.80;;;;;;;18.39;77.13;100044.19;5096716;28;20443;-68
2023/08/10 07:37:49;;;;;;;1.08;1.00;;;;;;;18.55;76.80;100042.94;5096567;28;20052;-66
2023/08/10 07:40:18;;;;;;;0.50;0.50;;;;;;;18.67;76.61;100050.34;5096497;28;20052;-67
2023/08/10 07:42:47;;;;;;;0.88;0.88;;;;;;;18.73;76.30;100050.19;5096120;28;20105;-68
2023/08/10 07:45:16;;;;;;;1.38;0.95;;;;;;;18.82;75.55;100043.91;5096375;28;20044;-68
2023/08/10 07:47:44;;;;;;;0.45;0.45;;;;;;;18.93;75.27;100036.69;5096536;28;20032;-68
2023/08/10 07:50:14;;;;;;;0.63;0.63;;;;;;;19.11;75.04;100046.50;5096315;28;20068;-69
2023/08/10 07:52:43;;;;;;;1.00;0.70;;;;;;;19.07;74.42;100042.31;5096430;28;20040;-68
2023/08/10 07:55:15;;;;;;;0.52;0.52;;;;;;;19.22;74.25;100045.28;5096206;28;20501;-69
2023/08/10 07:57:45;;;;;;;0.60;0.60;;;;;;;19.34;73.98;100038.88;5096406;28;20051;-68
2023/08/10 08:00:14;;;;;;;0.40;0.40;;;;;;;19.44;73.79;100049.84;5096024;28;20044;-69
2023/08/10 08:02:45;;;;;;;0.50;0.50;;;;;;;19.62;73.83;100044.94;5096084;28;20280;-68
2023/08/10 08:05:14;;;;;;;1.02;0.95;;;;;;;19.72;73.57;100041.19;5095814;28;20044;-67
2023/08/10 08:07:44;;;;;;;0.40;0.40;;;;;;;19.77;72.37;100041.84;5096761;28;20040;-68
2023/08/10 08:10:14;;;;;;;0.40;0.40;;;;;;;19.76;70.99;100047.94;5096119;28;20371;-68
2023/08/10 08:12:43;;;;;;;0.55;0.52;;;;;;;19.71;69.64;100042.06;5096080;28;20382;-70
2023/08/10 08:15:12;;;;;;;1.00;0.80;;;;;;;19.93;69.06;100039.63;5095986;28;20036;-68
2023/08/10 08:18:02;;;;;;;1.10;1.00;;;;;;;19.99;68.33;100029.88;5095944;28;20280;-68
2023/08/10 08:20:31;;;;;;;0.98;0.93;;;;;;;20.08;68.15;100026.16;5095996;28;20304;-68
2023/08/10 08:22:59;;;;;;;0.47;0.47;;;;;;;20.23;67.97;100032.59;5094694;28;20115;-69
2023/08/10 08:25:30;;;;;;;0.77;0.77;;;;;;;20.32;67.87;100037.47;5096129;28;20039;-68
2023/08/10 08:27:59;;;;;;;0.50;0.50;;;;;;;20.50;67.74;100031.63;5095534;28;20051;-68
2023/08/10 08:30:29;;;;;;;0.50;0.50;;;;;;;20.60;65.48;100035.59;5095432;28;20138;-69
2023/08/10 08:32:58;;;;;;;0.50;0.50;;;;;;;20.75;63.71;100027.25;5095843;28;20479;-67
2023/08/10 08:35:27;;;;;;;0.65;0.65;;;;;;;20.86;61.96;100037.22;5095321;28;20044;-69
2023/08/10 08:37:56;;;;;;;;;;;;;;;20.86;59.67;100030.28;5095656;28;20066;-68
2023/08/10 08:40:25;;;;;;;1.20;0.90;;;;;;;21.01;59.12;100034.91;5095072;28;19927;-69
2023/08/10 08:42:56;;;;;;;0.40;0.40;;;;;;;21.15;58.91;100030.09;5094915;28;20048;-68
2023/08/10 08:45:27;;;;;;;0.40;0.40;;;;;;;21.28;58.59;100028.69;5095086;28;20044;-70
2023/08/10 08:47:58;;;;;;;0.50;0.50;;;;;;;21.38;57.12;100019.66;5095136;28;20040;-67
2023/08/10 08:50:28;;;;;;;0.40;0.40;;;;;;;21.46;55.30;100021.09;5095145;28;20047;-69
2023/08/10 08:53:01;;;;;;;0.70;0.70;;;;;;;21.53;55.08;100012.16;5095352;28;20520;-67
2023/08/10 08:55:31;;;;;;;0.95;0.68;;;;;;;21.47;54.12;100017.59;5094958;28;20547;-70
2023/08/10 08:58:02;;;;;;;0.90;0.85;;;;;;;21.55;53.79;100013.78;5095214;28;20044;-68
2023/08/10 09:00:32;;;;;;;0.60;0.60;;;;;;;21.63;53.87;100023.88;5094963;28;20067;-69
2023/08/10 09:03:01;;;;;;;0.40;0.40;;;;;;;21.73;52.96;100009.59;5095479;28;20048;-69
2023/08/10 09:05:30;;;;;;;;;;;;;;;21.78;52.18;100012.84;5095227;28;20064;-69
2023/08/10 09:08:00;;;;;;;0.50;0.50;;;;;;;21.82;51.46;100006.63;5094756;28;19920;-68
2023/08/10 09:10:29;;;;;;;0.50;0.50;;;;;;;21.89;51.45;100011.53;5094814;28;20043;-70
2023/08/10 09:13:12;;;;;;;0.40;0.40;;;;;;;21.95;50.27;100002.63;5094746;28;20040;-71
2023/08/10 09:15:41;;;;;;;0.63;0.63;;;;;;;22.00;49.72;100008.50;5094660;28;20056;-72
2023/08/10 09:18:10;;;;;;;0.40;0.40;;;;;;;22.03;48.88;100013.53;5094882;28;20401;-69
2023/08/10 09:20:39;;;;;;;0.60;0.60;;;;;;;22.05;48.45;100011.75;5095132;28;20048;-70
2023/08/10 09:23:10;;;;;;;;;;;;;;;21.92;47.73;100010.56;5095153;28;20059;-68
2023/08/10 09:25:40;;;;;;;0.40;0.40;;;;;;;22.01;47.56;100005.81;5095147;28;20019;-70
2023/08/10 09:28:13;;;;;;;0.57;0.57;;;;;;;22.06;47.43;100003.03;5094304;28;20040;-68
2023/08/10 09:30:42;;;;;;;0.47;0.47;;;;;;;22.22;47.59;100004.06;5094292;28;20047;-69
2023/08/10 09:33:11;;;;;;;0.50;0.50;;;;;;;22.32;48.19;99997.53;5094280;28;20051;-70
2023/08/10 09:35:40;;;;;;;0.60;0.60;;;;;;;22.56;49.58;100004.28;5094239;28;20044;-70
2023/08/10 09:38:09;;;;;;;1.05;0.95;;;;;;;22.65;48.66;100009.09;5094229;28;20036;-69
2023/08/10 09:40:37;;;;;;;0.43;0.43;;;;;;;22.71;47.71;100004.53;5094408;28;20123;-68
2023/08/10 09:43:10;;;;;;;1.35;0.93;;;;;;;22.66;46.14;100003.00;5092679;28;20055;-66
2023/08/10 09:45:44;;;;;;;0.40;0.40;;;;;;;22.55;46.06;100002.59;5094017;28;20055;-69
2023/08/10 09:48:13;;;;;;;0.68;0.68;;;;;;;22.64;46.31;100001.38;5094009;28;20127;-69
2023/08/10 09:50:46;;;;;;;0.40;0.40;;;;;;;22.63;45.74;100003.13;5094313;28;20044;-70
2023/08/10 09:53:15;;;;;;;8.23;0.88;;;;;;;22.78;45.93;100009.41;5094284;28;20055;-70
2023/08/10 09:55:44;;;;;;;4.85;1.30;;;;;;;22.95;45.77;100012.06;5093939;28;20127;-69
2023/08/10 09:58:15;;;;;;;0.50;0.50;;;;;;;23.04;45.57;100008.19;5094098;28;20375;-70
2023/08/10 10:00:46;;;;;;;0.63;0.63;;;;;;;23.08;44.87;100012.38;5094207;28;20039;-70
2023/08/10 10:03:16;;;;;;;0.95;0.68;;;;;;;22.97;42.84;100006.78;5094157;28;20048;-70
2023/08/10 10:05:47;;;;;;;0.40;0.40;;;;;;;23.02;42.33;100002.22;5093581;28;20044;-71
2023/08/10 10:08:18;;;;;;;0.40;0.40;;;;;;;23.13;42.85;100010.41;5094059;28;20055;-72
2023/08/10 10:10:46;;;;;;;0.40;0.40;;;;;;;23.22;43.35;100007.34;5093701;28;20048;-70
2023/08/10 10:13:17;;;;;;;0.40;0.40;;;;;;;23.37;43.77;100009.25;5093752;28;20040;-69
2023/08/10 10:15:48;;;;;;;0.40;0.40;;;;;;;23.42;43.49;100004.66;5093703;28;20082;-69
2023/08/10 10:18:18;;;;;;;0.50;0.50;;;;;;;23.60;44.21;100005.53;5094195;28;20080;-68
2023/08/10 10:20:47;;;;;;;0.50;0.50;;;;;;;23.52;43.60;100020.69;5094168;28;20044;-71
2023/08/10 10:23:16;;;;;;;;;;;;;;;23.52;42.96;100003.31;5094232;28;20036;-70
2023/08/10 10:26:00;;;;;;;;;;;;;;;23.57;43.21;100011.75;5093866;28;20019;-69
2023/08/10 10:28:31;;;;;;;0.50;0.50;;;;;;;23.52;41.82;100007.66;5092142;28;19971;-70
2023/08/10 10:31:10;;;;;;;0.50;0.50;;;;;;;23.56;41.22;99998.81;5092314;28;20101;-71
2023/08/10 10:33:56;;;;;;;0.40;0.40;;;;;;;23.56;41.28;100002.25;5093864;28;20036;-70
2023/08/10 10:36:25;;;;;;;0.47;0.47;;;;;;;23.59;41.96;99999.47;5093540;28;20076;-71
2023/08/10 10:38:58;;;;;;;0.50;0.50;;;;;;;23.63;41.49;100001.03;5093794;28;20138;-70
2023/08/10 10:41:32;;;;;;;0.43;0.43;;;;;;;23.78;41.32;100000.25;5093750;28;20048;-73
2023/08/10 10:44:02;;;;;;;0.80;0.80;;;;;;;23.88;41.58;100003.25;5093190;28;20060;-70
2023/08/10 10:46:41;;;;;;;0.40;0.40;;;;;;;23.95;41.46;100002.03;5094758;28;20090;-69
2023/08/10 10:49:15;;;;;;;0.60;0.60;;;;;;;23.83;40.00;100000.03;5097477;28;20051;-71
2023/08/10 10:51:52;;;;;;;0.40;0.40;;;;;;;23.86;39.28;100003.34;5097470;28;20051;-70
2023/08/10 10:54:22;;;;;;;0.60;0.60;;;;;;;23.96;39.59;100004.56;5097672;28;20051;-70
2023/08/10 10:56:52;;;;;;;0.65;0.65;;;;;;;24.11;40.11;100002.13;5097336;28;20047;-70
2023/08/10 10:59:21;;;;;;;2.63;0.98;;;;;;;24.15;39.73;100014.09;5097221;28;20119;-70
2023/08/10 11:01:51;;;;;;;;;;;;;;;24.23;39.12;100006.75;5097568;28;20047;-70
2023/08/10 11:04:22;;;;;;;0.40;0.40;;;;;;;24.26;39.21;100003.97;5097788;28;19920;-70
2023/08/10 11:06:51;;;;;;;0.63;0.63;;;;;;;24.13;38.70;100000.28;5097011;28;20040;-70
2023/08/10 11:09:22;;;;;;;0.50;0.50;;;;;;;24.07;39.06;100006.66;5097691;28;20093;-71
2023/08/10 11:11:52;;;;;;;0.43;0.43;;;;;;;24.04;39.45;99995.53;5097105;28;20489;-70
2023/08/10 11:14:21;;;;;;;0.50;0.50;;;;;;;23.89;39.01;100000.59;5096908;28;20036;-69
2023/08/10 11:16:52;;;;;;;0.80;0.80;;;;;;;23.97;38.96;100001.03;5096882;28;20063;-70
2023/08/10 11:19:21;;;;;;;0.50;0.50;;;;;;;23.88;38.70;99996.28;5097116;28;20421;-70
2023/08/10 11:21:51;;;;;;;3.72;0.68;;;;;;;24.02;39.25;99994.75;5097112;28;20036;-73
2023/08/10 11:24:20;;;;;;;1.75;0.98;;;;;;;24.01;39.41;99988.69;5096954;28;20398;-72
2023/08/10 11:26:50;;;;;;;0.40;0.40;;;;;;;24.21;39.96;99988.53;5096747;28;20068;-70
2023/08/10 11:29:20;;;;;;;0.40;0.40;;;;;;;24.60;42.22;99996.91;5096627;28;20138;-71
2023/08/10 11:31:49;;;;;;;;;;;;;;;24.71;40.62;99993.72;5097244;28;20550;-70
2023/08/10 11:34:35;;;;;;;0.68;0.68;;;;;;;24.74;39.49;99993.53;5096937;28;19959;-71
2023/08/10 11:37:06;;;;;;;0.40;0.40;;;;;;;24.45;38.70;100002.09;5096532;28;20044;-69
2023/08/10 11:39:36;;;;;;;0.55;0.55;;;;;;;24.31;38.76;99999.34;5096559;28;20052;-70
2023/08/10 11:42:05;;;;;;;0.40;0.40;;;;;;;24.41;38.10;100000.56;5096370;28;20040;-71
2023/08/10 11:44:47;;;;;;;0.43;0.43;;;;;;;24.49;36.96;99987.97;5096185;28;20056;-71